Nearby METAR Reports

 

KSJC - San Jose, California, USA
Distance from station: NE 9mi, 14km
Updated: Sat, 25-Mar-2017 3:53am CDT
Overcast
Overcast
 Wind from calm
Wind: Calm
Temperature: 54°F , 12°C
Dew Point: 52°F , 11°C
Humidity: 94%
Barometer: 30.15 inHg , 1021 hPa
Clouds: Overcast
Visibility: 10 miles , 16 km
Cloud details: Mostly cloudy 500 ft
Overcast 1100 ft
2017/03/25 08:53 KSJC 250853Z AUTO 00000KT 10SM BKN005 OVC011 12/11 A3015 RMK AO2 RAE10 SLP209 P0001 60002 T01170111 58007 $
KNUQ - Moffett Nas/Mtn, California, USA
Distance from station: N 9mi, 14km
Updated: Sat, 25-Mar-2017 4:24am CDT
Mist, Mostly cloudy
Mist, Mostly cloudy
 Wind from NNE
Wind: NNE 3 mph , 6 km/h
Temperature: 50°F , 10°C
Dew Point: 50°F , 10°C
Humidity: 100%
Barometer: 30.16 inHg , 1021.3 hPa
Summary: Mist
Clouds: Mostly cloudy
Visibility: 3/4 mile , 5 km
Cloud details: Mostly cloudy 2500 ft
2017/03/25 09:24 KNUQ 250924Z 02003KT 3/4SM BR BKN025 10/10 A3016 RMK AO2 T01000100
KPAO - Palo Alto, California, USA
Distance from station: NNW 14mi, 23km
Updated: Fri, 24-Mar-2017 10:47pm CDT
NOT Current
Overcast
Overcast
 Wind from E
Wind: E 8 mph , 13 km/h
Temperature: 55°F , 13°C
Dew Point: 54°F , 12°C
Humidity: 94%
Barometer: 30.17 inHg , 1021.7 hPa
Clouds: Overcast
Visibility: 10 miles , 16 km
Cloud details: Partly cloudy 1600 ft
Overcast 3000 ft
2017/03/25 03:47 KPAO 250347Z 10007KT 10SM SCT016 OVC030 13/12 A3017 RMK LAST
 
KRHV - San Jose/Reid, California, USA
Distance from station: ENE 12mi, 19km
Updated: Fri, 24-Mar-2017 11:47pm CDT
NOT Current
Overcast
Overcast
 Wind from SSW
Wind: SSW 7 mph , 11 km/h
Temperature: 54°F , 12°C
Dew Point: 52°F , 11°C
Humidity: 94%
Barometer: 30.20 inHg , 1022.7 hPa
Clouds: Overcast
Visibility: 2 miles , 3 km
Cloud details: Overcast 1300 ft
2017/03/25 04:47 KRHV 250447Z 21006KT 2SM OVC013 12/11 A3020
KOAK - Oakland, California, USA
Distance from station: NNW 31mi, 50km
Updated: Sat, 25-Mar-2017 3:53am CDT
Light rain, Overcast
Light rain, Overcast
 Wind from NNW
Wind: NNW 3 mph , 6 km/h
Temperature: 55°F , 13°C
Dew Point: 55°F , 13°C
Humidity: 100%
Barometer: 30.16 inHg , 1021.3 hPa
Summary: Light rain
Clouds: Overcast
Visibility: 7 miles , 11 km
Cloud details: Partly cloudy 800 ft
Mostly cloudy 1400 ft
Overcast 2200 ft
2017/03/25 08:53 KOAK 250853Z 34003KT 7SM -RA SCT008 BKN014 OVC022 13/13 A3016 RMK AO2 RAB53 SLP214 P0000 60000 T01330128 58005
KSQL - San Carlos Airpo, California, USA
Distance from station: NW 21mi, 34km
Updated: Sat, 25-Mar-2017 4:15am CDT
Mostly cloudy
Mostly cloudy
 Wind from calm
Wind: Calm
Temperature: 52°F , 11°C
Dew Point: 52°F , 11°C
Humidity: 100%
Barometer: 30.16 inHg , 1021.3 hPa
Clouds: Mostly cloudy
Visibility: 7 miles , 11 km
Cloud details: Mostly cloudy 9500 ft
2017/03/25 09:15 KSQL 250915Z AUTO 00000KT 7SM BKN095 11/11 A3016 RMK AO2
 
KSFO - San Francisco, California, USA
Distance from station: NW 30mi, 49km
Updated: Sat, 25-Mar-2017 3:56am CDT
Mostly cloudy
Mostly cloudy
 Wind from W
Wind: W 6 mph , 9 km/h
Temperature: 54°F , 12°C
Dew Point: 50°F , 10°C
Humidity: 88%
Barometer: 30.16 inHg , 1021.3 hPa
Clouds: Mostly cloudy
Visibility: 10 miles , 16 km
Cloud details: Few Clouds 1300 ft
Mostly cloudy 2500 ft
Mostly cloudy 9000 ft
2017/03/25 08:56 KSFO 250856Z 28005KT 10SM FEW013 BKN025 BKN090 12/10 A3016 RMK AO2 SLP213 T01170100 56005
KE16 - San Martin, California, USA
Distance from station: ESE 27mi, 43km
Updated: Sat, 25-Mar-2017 4:15am CDT
Overcast
Overcast
 Wind from WNW
Wind: WNW 3 mph , 6 km/h
Temperature: 52°F , 11°C
Dew Point: 50°F , 10°C
Humidity: 94%
Barometer: 30.16 inHg , 1021.3 hPa
Clouds: Overcast
Visibility: 7 miles , 11 km
Cloud details: Few Clouds 1200 ft
Overcast 2200 ft
2017/03/25 09:15 KE16 250915Z AUTO 29003KT 7SM FEW012 OVC022 11/10 A3016 RMK AO2
KWVI - Watsonville, California, USA
Distance from station: SSE 27mi, 44km
Updated: Sat, 25-Mar-2017 4:26am CDT
Light rain, Mist, Overcast
Light rain, Mist, Overcast
 Wind from calm
Wind: Calm
Temperature: 54°F , 12°C
Dew Point: 54°F , 12°C
Humidity: 100%
Barometer: 30.15 inHg , 1021 hPa
Summary: Light rain, Mist
Clouds: Overcast
Visibility: 3 miles , 5 km
Cloud details: Few Clouds 500 ft
Overcast 1200 ft
2017/03/25 09:26 KWVI 250926Z AUTO 00000KT 3SM -RA BR FEW005 OVC012 12/12 A3015 RMK AO2 P0007 T01170117
 
KHAF - Half Moon Bay, California, USA
Distance from station: WNW 31mi, 50km
Updated: Sat, 25-Mar-2017 4:15am CDT
Mist, Overcast
Mist, Overcast
 Wind from N
Wind: N 5 mph , 7 km/h
Temperature: 52°F , 11°C
Dew Point: 50°F , 10°C
Humidity: 94%
Barometer: 30.17 inHg , 1021.7 hPa
Summary: Mist
Clouds: Overcast
Visibility: 4 miles , 6 km
Cloud details: Partly cloudy 200 ft
Overcast 1600 ft
2017/03/25 09:15 KHAF 250915Z AUTO 36004KT 4SM BR SCT002 OVC016 11/10 A3017 RMK AO2
KHWD - Hayward, California, USA
Distance from station: N 28mi, 44km
Updated: Sat, 25-Mar-2017 4:09am CDT
Haze, Overcast
Haze, Overcast
 Wind from calm
Wind: Calm
Temperature: 55°F , 13°C
Dew Point: 50°F , 10°C
Humidity: 82%
Barometer: 30.15 inHg , 1021 hPa
Summary: Haze
Clouds: Overcast
Visibility: 6 miles , 10 km
Cloud details: Partly cloudy 700 ft
Overcast 2400 ft
2017/03/25 09:09 KHWD 250909Z 00000KT 6SM HZ SCT007 OVC024 13/10 A3015 RMK AO2 T01280100
KLVK - Livermore, California, USA
Distance from station: NNE 31mi, 51km
Updated: Sat, 25-Mar-2017 4:08am CDT
Overcast
Overcast
 Wind from calm
Wind: Calm
Temperature: 52°F , 11°C
Dew Point: 48°F , 9°C
Humidity: 88%
Barometer: 30.15 inHg , 1021 hPa
Clouds: Overcast
Visibility: 10 miles , 16 km
Cloud details: Mostly cloudy 2000 ft
Overcast 10000 ft
2017/03/25 09:08 KLVK 250908Z AUTO 00000KT 10SM BKN020 OVC100 11/09 A3015 RMK AO2 T01060094 TSNO